Dart — OUOV2 — position and weather

sailwx.info

Track history (hours):
 
Tides and Currents Weather Stations Pressure Air Temp Water Temp Dewpoint Dewpoint Depression Visibility Wind Speed Wind Dir Waves Ship Positions

Dart

Last reported at 2014-Jul-29 08:32 UTC. Time now 2014-Jul-29 12:45 UTC.
Position N 54°03' E 004°57'.

Length 66 m; draft 4.5 m.

Type: Tanker. MMSI: 219416000.

Date/timePositionNaut miles runAvg speedWind from/ knotsBaromVisibWave heightAir tempDewpointWater temp
2014-Jul-29 08:32N 54°03' E 004°57'1210.2
2014-Jul-29 07:24N 53°51' E 004°54'910.4
2014-Jul-29 06:31N 53°42' E 004°51'1110.6
2014-Jul-29 05:27N 53°31' E 004°47'910.4
2014-Jul-29 04:32N 53°23' E 004°41'14 9.7
2014-Jul-29 03:03N 53°09' E 004°31'6 9.1
2014-Jul-29 02:26N 53°05' E 004°26'10 8.7
2014-Jul-29 01:18N 52°56' E 004°18'39 8.1
2014-Jul-28 20:27N 52°20' E 003°51'7 8.2
2014-Jul-28 19:33N 52°13' E 003°53'9 9.2
2014-Jul-28 18:33N 52°04' E 003°54'9 9.0
2014-Jul-28 17:33N 51°59' E 004°07'10 9.9
2014-Jul-28 16:33N 51°53' E 004°20'7 7.4
2014-Jul-28 15:33N 51°50' E 004°31'7 7.5
2014-Jul-28 14:33N 51°44' E 004°38'2 2.4
2014-Jul-28 13:33N 51°42' E 004°36'0 0.0
2014-Jul-28 12:15N 51°42' E 004°36'0 0.0
2014-Jul-28 11:33N 51°42' E 004°36'0 0.0
2014-Jul-28 10:33N 51°42' E 004°36'0 0.0
2014-Jul-28 09:30N 51°42' E 004°36'0 0.0
2014-Jul-28 08:30N 51°42' E 004°36'0 0.0
2014-Jul-28 07:27N 51°42' E 004°36'0 0.0
2014-Jul-28 06:15N 51°42' E 004°36'0 0.0
2014-Jul-28 05:30N 51°42' E 004°36'0 0.0
2014-Jul-28 04:31N 51°42' E 004°36'3 2.7
2014-Jul-28 03:33N 51°44' E 004°38'8 8.0
2014-Jul-28 02:34N 51°50' E 004°29'8 8.1
2014-Jul-28 01:33N 51°54' E 004°18'9 9.0
2014-Jul-28 00:33N 51°59' E 004°06'8 7.8
2014-Jul-27 23:33N 52°00' E 003°53'6 5.9
2014-Jul-27 22:33N 52°02' E 003°44'7 7.2
2014-Jul-27 21:33N 52°09' E 003°46'7 7.3
2014-Jul-27 20:33N 52°17' E 003°47'8 8.1
2014-Jul-27 19:33N 52°25' E 003°49'45 7.2
2014-Jul-27 13:16N 53°06' E 004°20'5 7.3
2014-Jul-27 12:33N 53°10' E 004°26'8 7.7
2014-Jul-27 11:33N 53°17' E 004°32'8 7.7
2014-Jul-27 10:32N 53°24' E 004°36'17 7.5
2014-Jul-27 08:15N 53°41' E 004°43'8 7.0
2014-Jul-27 07:09N 53°48' E 004°48'12 7.1
2014-Jul-27 05:32N 53°59' E 004°55'7 6.8
2014-Jul-27 04:32N 54°05' E 004°57'14 7.2
2014-Jul-27 02:33N 54°19' E 004°57'40 7.4
2014-Jul-26 21:12N 54°59' E 004°58'5 7.6
2014-Jul-26 20:33N 55°04' E 004°58'8 7.5
2014-Jul-26 19:32N 55°12' E 004°58'7 7.4
2014-Jul-26 18:33N 55°19' E 004°58'7 7.4
2014-Jul-26 17:34N 55°26' E 004°58'171 7.1
2014-Jul-25 17:17N 58°18' E 005°09'5 7.5
2014-Jul-25 16:33N 58°23' E 005°11'7 7.1
2014-Jul-25 15:33N 58°30' E 005°11'8 7.6
2014-Jul-25 14:33N 58°38' E 005°13'9 9.1
2014-Jul-25 13:33N 58°46' E 005°16'9 9.3
2014-Jul-25 12:33N 58°56' E 005°18'9 8.9
2014-Jul-25 11:33N 59°05' E 005°19'8 8.2
2014-Jul-25 10:33N 59°13' E 005°20'8 0.3
2014-Jul-24 08:33N 59°21' E 005°19'3 3.4
2014-Jul-24 07:33N 59°24' E 005°16'0 0.0
2014-Jul-24 06:33N 59°24' E 005°16'0 0.3
2014-Jul-24 05:33N 59°24' E 005°16'51 8.2
2014-Jul-23 23:20N 60°15' E 005°09'9 8.7
2014-Jul-23 22:18N 60°24' E 005°09'8 8.8
2014-Jul-23 21:24N 60°30' E 004°58'310 7.8
2014-Jul-22 05:33N 64°49' E 011°09'8 8.4
2014-Jul-22 04:33N 64°55' E 011°22'9 8.8
2014-Jul-22 03:33N 65°02' E 011°36'10 8.5
2014-Jul-22 02:26N 65°09' E 011°50'79 8.9
2014-Jul-21 17:32N 66°23' E 012°58'9 9.0
2014-Jul-21 16:33N 66°32' E 012°58'31 7.6
2014-Jul-21 12:30N 66°58' E 013°37'9 9.0
2014-Jul-21 11:32N 67°04' E 013°54'9 9.4
2014-Jul-21 10:33N 67°12' E 014°06'10 9.5
2014-Jul-21 09:33N 67°20' E 014°20'9 8.7
2014-Jul-21 08:34N 67°28' E 014°24'10 9.5
2014-Jul-21 07:33N 67°38' E 014°17'10 9.3
2014-Jul-21 06:32N 67°47' E 014°21'246 8.8
2014-Jul-20 02:32N 70°31' E 022°57'11 9.2
2014-Jul-20 01:23N 70°38' E 023°21'6 7.0
2014-Jul-20 00:32N 70°38' E 023°39'0 0.0
2014-Jul-19 20:13N 70°38' E 023°39'2 2.8
2014-Jul-19 19:26N 70°38' E 023°33'8 8.8
2014-Jul-19 18:29N 70°34' E 023°10'10 9.3
2014-Jul-19 17:26N 70°29' E 022°45'8 9.7
2014-Jul-19 16:33N 70°27' E 022°20'  
Track history (hours):
 
Tides and Currents Weather Stations Pressure Air Temp Water Temp Dewpoint Dewpoint Depression Visibility Wind Speed Wind Dir Waves Ship Positions

Dart

Last reported at 2014-Jul-29 08:32 UTC. Time now 2014-Jul-29 12:45 UTC.
Position N 54°03' E 004°57'.

Length 66 m; draft 4.5 m.

Type: Tanker. MMSI: 219416000.

Date/timePositionNaut miles runAvg speedWind from/ knotsBaromVisibWave heightAir tempDewpointWater temp
2014-Jul-29 08:32N 54°03' E 004°57'1210.2
2014-Jul-29 07:24N 53°51' E 004°54'910.4
2014-Jul-29 06:31N 53°42' E 004°51'1110.6
2014-Jul-29 05:27N 53°31' E 004°47'910.4
2014-Jul-29 04:32N 53°23' E 004°41'14 9.7
2014-Jul-29 03:03N 53°09' E 004°31'6 9.1
2014-Jul-29 02:26N 53°05' E 004°26'10 8.7
2014-Jul-29 01:18N 52°56' E 004°18'39 8.1
2014-Jul-28 20:27N 52°20' E 003°51'7 8.2
2014-Jul-28 19:33N 52°13' E 003°53'9 9.2
2014-Jul-28 18:33N 52°04' E 003°54'9 9.0
2014-Jul-28 17:33N 51°59' E 004°07'10 9.9
2014-Jul-28 16:33N 51°53' E 004°20'7 7.4
2014-Jul-28 15:33N 51°50' E 004°31'7 7.5
2014-Jul-28 14:33N 51°44' E 004°38'2 2.4
2014-Jul-28 13:33N 51°42' E 004°36'0 0.0
2014-Jul-28 12:15N 51°42' E 004°36'0 0.0
2014-Jul-28 11:33N 51°42' E 004°36'0 0.0
2014-Jul-28 10:33N 51°42' E 004°36'0 0.0
2014-Jul-28 09:30N 51°42' E 004°36'0 0.0
2014-Jul-28 08:30N 51°42' E 004°36'0 0.0
2014-Jul-28 07:27N 51°42' E 004°36'0 0.0
2014-Jul-28 06:15N 51°42' E 004°36'0 0.0
2014-Jul-28 05:30N 51°42' E 004°36'0 0.0
2014-Jul-28 04:31N 51°42' E 004°36'3 2.7
2014-Jul-28 03:33N 51°44' E 004°38'8 8.0
2014-Jul-28 02:34N 51°50' E 004°29'8 8.1
2014-Jul-28 01:33N 51°54' E 004°18'9 9.0
2014-Jul-28 00:33N 51°59' E 004°06'8 7.8
2014-Jul-27 23:33N 52°00' E 003°53'6 5.9
2014-Jul-27 22:33N 52°02' E 003°44'7 7.2
2014-Jul-27 21:33N 52°09' E 003°46'7 7.3
2014-Jul-27 20:33N 52°17' E 003°47'8 8.1
2014-Jul-27 19:33N 52°25' E 003°49'45 7.2
2014-Jul-27 13:16N 53°06' E 004°20'5 7.3
2014-Jul-27 12:33N 53°10' E 004°26'8 7.7
2014-Jul-27 11:33N 53°17' E 004°32'8 7.7
2014-Jul-27 10:32N 53°24' E 004°36'17 7.5
2014-Jul-27 08:15N 53°41' E 004°43'8 7.0
2014-Jul-27 07:09N 53°48' E 004°48'12 7.1
2014-Jul-27 05:32N 53°59' E 004°55'7 6.8
2014-Jul-27 04:32N 54°05' E 004°57'14 7.2
2014-Jul-27 02:33N 54°19' E 004°57'40 7.4
2014-Jul-26 21:12N 54°59' E 004°58'5 7.6
2014-Jul-26 20:33N 55°04' E 004°58'8 7.5
2014-Jul-26 19:32N 55°12' E 004°58'7 7.4
2014-Jul-26 18:33N 55°19' E 004°58'7 7.4
2014-Jul-26 17:34N 55°26' E 004°58'171 7.1
2014-Jul-25 17:17N 58°18' E 005°09'5 7.5
2014-Jul-25 16:33N 58°23' E 005°11'7 7.1
2014-Jul-25 15:33N 58°30' E 005°11'8 7.6
2014-Jul-25 14:33N 58°38' E 005°13'9 9.1
2014-Jul-25 13:33N 58°46' E 005°16'9 9.3
2014-Jul-25 12:33N 58°56' E 005°18'9 8.9
2014-Jul-25 11:33N 59°05' E 005°19'8 8.2
2014-Jul-25 10:33N 59°13' E 005°20'8 0.3
2014-Jul-24 08:33N 59°21' E 005°19'3 3.4
2014-Jul-24 07:33N 59°24' E 005°16'0 0.0
2014-Jul-24 06:33N 59°24' E 005°16'0 0.3
2014-Jul-24 05:33N 59°24' E 005°16'51 8.2
2014-Jul-23 23:20N 60°15' E 005°09'9 8.7
2014-Jul-23 22:18N 60°24' E 005°09'8 8.8
2014-Jul-23 21:24N 60°30' E 004°58'310 7.8
2014-Jul-22 05:33N 64°49' E 011°09'8 8.4
2014-Jul-22 04:33N 64°55' E 011°22'9 8.8
2014-Jul-22 03:33N 65°02' E 011°36'10 8.5
2014-Jul-22 02:26N 65°09' E 011°50'79 8.9
2014-Jul-21 17:32N 66°23' E 012°58'9 9.0
2014-Jul-21 16:33N 66°32' E 012°58'31 7.6
2014-Jul-21 12:30N 66°58' E 013°37'9 9.0
2014-Jul-21 11:32N 67°04' E 013°54'9 9.4
2014-Jul-21 10:33N 67°12' E 014°06'10 9.5
2014-Jul-21 09:33N 67°20' E 014°20'9 8.7
2014-Jul-21 08:34N 67°28' E 014°24'10 9.5
2014-Jul-21 07:33N 67°38' E 014°17'10 9.3
2014-Jul-21 06:32N 67°47' E 014°21'246 8.8
2014-Jul-20 02:32N 70°31' E 022°57'11 9.2
2014-Jul-20 01:23N 70°38' E 023°21'6 7.0
2014-Jul-20 00:32N 70°38' E 023°39'0 0.0
2014-Jul-19 20:13N 70°38' E 023°39'2 2.8
2014-Jul-19 19:26N 70°38' E 023°33'8 8.8
2014-Jul-19 18:29N 70°34' E 023°10'10 9.3
2014-Jul-19 17:26N 70°29' E 022°45'8 9.7
2014-Jul-19 16:33N 70°27' E 022°20'  

Dump ship's entire track history